Time;durP1;ratioP1;P1;durP2;ratioP2;P2;SDS_P1;SDS_P2;PMS_P1;PMS_P2;Temp;Humidity;BMP_temperature;BMP_pressure;BME280_temperature;BME280_humidity;BME280_pressure;Samples;Min_cycle;Max_cycle;Signal;HPM_P1;HPM_P2
2023/05/05 00:00:29;;;;;;;25.70;13.80;;;;;;;7.03;65.95;100669.08;134244;1298;22374;-77
2023/05/05 00:03:30;;;;;;;23.50;14.30;;;;;;;6.94;66.01;100670.29;134093;1301;22200;-77
2023/05/05 00:07:01;;;;;;;24.70;14.40;;;;;;;6.89;66.16;100668.58;134229;1297;22490;-77
2023/05/05 00:10:02;;;;;;;26.10;15.00;;;;;;;6.85;66.15;100678.80;134138;1298;22244;-77
2023/05/05 00:13:10;;;;;;;31.50;15.90;;;;;;;6.81;66.38;100680.19;134238;1297;22923;-77
2023/05/05 00:16:10;;;;;;;26.80;15.70;;;;;;;6.74;66.24;100678.14;134215;1297;22273;-77
2023/05/05 00:19:11;;;;;;;;;;;;;;;6.70;66.19;100676.00;134241;1297;22479;-77
2023/05/05 00:25:33;;;;;;;22.20;13.90;;;;;;;6.69;66.39;100679.21;134235;1298;23282;-77
2023/05/05 00:28:44;;;;;;;24.20;14.30;;;;;;;6.55;66.59;100673.70;134215;1297;22420;-77
2023/05/05 00:31:56;;;;;;;27.00;14.90;;;;;;;6.44;67.05;100668.86;134230;1298;22400;-77
2023/05/05 00:35:10;;;;;;;23.20;13.60;;;;;;;6.35;67.23;100668.34;134238;1297;22199;-77
2023/05/05 00:38:11;;;;;;;24.20;14.00;;;;;;;6.32;67.28;100662.17;133930;1302;22384;-77
2023/05/05 00:41:23;;;;;;;;;;;;;;;;;;;;;
2023/05/05 00:44:37;;;;;;;23.60;14.40;;;;;;;6.22;67.56;100664.29;134221;1298;22371;-77
2023/05/05 00:47:40;;;;;;;25.30;14.80;;;;;;;6.21;67.68;100663.15;134063;1301;22227;-77
2023/05/05 00:50:43;;;;;;;28.90;16.00;;;;;;;6.22;67.83;100665.34;133901;1298;22170;-77
2023/05/05 00:53:48;;;;;;;27.60;15.50;;;;;;;6.26;67.69;100665.39;134091;1295;22257;-77
2023/05/05 00:56:57;;;;;;;25.90;14.30;;;;;;;6.31;67.89;100664.79;134213;1298;22393;-77
2023/05/05 01:00:00;;;;;;;30.50;16.80;;;;;;;6.35;68.05;100660.66;134103;1304;22592;-77
2023/05/05 01:03:01;;;;;;;26.90;15.70;;;;;;;6.33;68.44;100658.56;134198;1298;22421;-77
2023/05/05 01:06:27;;;;;;;21.90;14.40;;;;;;;6.28;68.31;100659.39;134229;1298;22387;-77
2023/05/05 01:09:43;;;;;;;25.60;14.00;;;;;;;6.21;68.17;100662.13;134215;1298;22241;-77
2023/05/05 01:13:21;;;;;;;28.30;14.40;;;;;;;6.13;68.46;100657.51;134229;1286;22430;-77
2023/05/05 01:16:33;;;;;;;26.60;14.50;;;;;;;6.09;68.77;100654.34;134208;1298;22372;-77
2023/05/05 01:19:57;;;;;;;27.40;15.90;;;;;;;6.09;68.91;100653.80;134237;1297;22430;-77
2023/05/05 01:23:04;;;;;;;28.10;16.00;;;;;;;6.12;69.04;100653.05;134197;1300;22427;-77
2023/05/05 01:26:35;;;;;;;29.60;16.60;;;;;;;6.14;68.98;100649.16;134215;1298;22336;-77
2023/05/05 01:30:24;;;;;;;26.90;16.00;;;;;;;6.18;69.11;100645.55;134221;1297;23253;-77
2023/05/05 01:33:43;;;;;;;29.50;14.80;;;;;;;6.21;68.95;100642.61;133325;1304;22562;-77
2023/05/05 01:36:57;;;;;;;24.00;15.30;;;;;;;6.25;68.86;100638.58;133931;1297;22397;-77
2023/05/05 01:40:06;;;;;;;27.30;15.40;;;;;;;6.30;68.85;100634.14;134232;1298;22353;-77
2023/05/05 01:43:11;;;;;;;28.40;15.00;;;;;;;6.35;69.22;100632.00;134214;1301;22229;-77
2023/05/05 01:46:16;;;;;;;23.10;14.50;;;;;;;6.40;69.07;100628.77;134075;1301;22376;-77
2023/05/05 01:49:20;;;;;;;25.10;15.90;;;;;;;6.46;69.21;100629.85;134237;1297;22398;-77
2023/05/05 01:52:26;;;;;;;28.90;16.30;;;;;;;6.48;68.95;100630.52;134098;1299;22397;-77
2023/05/05 01:55:34;;;;;;;26.60;15.90;;;;;;;6.51;69.00;100630.10;134091;1298;22432;-77
2023/05/05 01:58:37;;;;;;;28.10;15.70;;;;;;;6.55;69.14;100625.96;134232;1298;22419;-77
2023/05/05 02:01:40;;;;;;;29.10;15.50;;;;;;;6.58;69.07;100628.13;134069;1305;22416;-77
2023/05/05 02:04:43;;;;;;;26.50;15.90;;;;;;;6.64;69.11;100631.52;134111;1298;22359;-77
2023/05/05 02:07:49;;;;;;;22.80;14.50;;;;;;;6.68;69.04;100633.80;134099;1298;24985;-77
2023/05/05 02:10:53;;;;;;;23.50;14.10;;;;;;;6.72;68.99;100632.94;134210;1298;23135;-77
2023/05/05 02:13:54;;;;;;;27.50;15.40;;;;;;;6.75;69.39;100637.59;134220;1297;22378;-77
2023/05/05 02:16:58;;;;;;;24.40;14.30;;;;;;;6.79;69.38;100634.84;134072;1298;22322;-77
2023/05/05 02:20:02;;;;;;;23.60;14.50;;;;;;;6.81;69.54;100636.45;134212;1298;22276;-77
2023/05/05 02:23:16;;;;;;;;;;;;;;;;;;;;;
2023/05/05 02:26:22;;;;;;;20.00;12.90;;;;;;;6.83;69.82;100632.58;133908;1299;22210;-77
2023/05/05 02:29:47;;;;;;;22.00;14.00;;;;;;;6.84;69.86;100627.90;134196;1298;22869;-77
2023/05/05 02:32:55;;;;;;;24.90;13.40;;;;;;;6.85;69.98;100630.23;134087;1304;22204;-77
2023/05/05 02:36:05;;;;;;;22.60;13.60;;;;;;;6.87;69.96;100626.95;134077;1301;22611;-77
2023/05/05 02:39:23;;;;;;;;;;;;;;;;;;;;;
2023/05/05 02:42:48;;;;;;;25.40;13.70;;;;;;;6.90;70.04;100625.61;134240;1297;22214;-77
2023/05/05 02:45:54;;;;;;;19.10;13.80;;;;;;;6.91;69.90;100619.41;134117;1302;22211;-77
2023/05/05 02:48:55;;;;;;;21.80;14.00;;;;;;;6.91;70.00;100618.66;134066;1303;22385;-77
2023/05/05 02:52:02;;;;;;;;;;;;;;;6.89;69.96;100625.13;134238;1298;23037;-77
2023/05/05 02:55:07;;;;;;;22.30;12.70;;;;;;;6.85;70.00;100622.36;134096;1301;22451;-76
2023/05/05 02:58:52;;;;;;;22.90;12.90;;;;;;;6.80;70.19;100627.69;134088;1298;22421;-77
2023/05/05 03:02:18;;;;;;;19.90;12.70;;;;;;;6.73;70.34;100629.99;134032;1299;22351;-77
2023/05/05 03:05:33;;;;;;;20.30;12.70;;;;;;;6.69;70.73;100631.73;134081;1298;22365;-77
2023/05/05 03:09:36;;;;;;;;;;;;;;;;;;;;;
2023/05/05 03:13:06;;;;;;;19.70;12.60;;;;;;;6.68;70.51;100638.88;133860;1299;22709;-77
2023/05/05 03:16:45;;;;;;;22.90;13.50;;;;;;;6.70;71.06;100636.95;134213;1298;22246;-77
2023/05/05 03:20:07;;;;;;;22.10;12.60;;;;;;;6.71;70.73;100637.56;134192;1298;22369;-77
2023/05/05 03:23:19;;;;;;;29.00;14.10;;;;;;;6.73;70.68;100637.23;134211;1298;22422;-77
2023/05/05 03:26:28;;;;;;;23.40;13.90;;;;;;;6.75;70.87;100640.24;134005;1296;22433;-77
2023/05/05 03:29:29;;;;;;;27.60;14.50;;;;;;;6.77;71.11;100643.64;134195;1300;22551;-77
2023/05/05 03:32:30;;;;;;;22.90;13.80;;;;;;;6.79;70.81;100643.80;134107;1303;22793;-77
2023/05/05 03:35:35;;;;;;;22.40;14.00;;;;;;;6.80;71.05;100644.55;134076;1298;22264;-77
2023/05/05 03:38:43;;;;;;;23.20;14.20;;;;;;;6.81;71.09;100644.30;134235;1298;22273;-76
2023/05/05 03:45:33;;;;;;;21.30;13.90;;;;;;;6.80;71.16;100649.20;134088;1298;22367;-77
2023/05/05 03:48:34;;;;;;;21.50;13.70;;;;;;;6.80;71.22;100652.66;134190;1297;22373;-77
2023/05/05 03:51:38;;;;;;;22.90;14.10;;;;;;;6.82;71.43;100653.39;134105;1298;22357;-77
2023/05/05 03:54:39;;;;;;;24.20;15.00;;;;;;;6.85;71.26;100651.36;134081;1300;22516;-77
2023/05/05 03:57:45;;;;;;;27.40;14.10;;;;;;;6.91;71.41;100649.48;134215;1298;22863;-77
2023/05/05 04:00:49;;;;;;;23.00;14.30;;;;;;;6.95;71.39;100653.86;134203;1305;22492;-77
2023/05/05 04:03:57;;;;;;;24.50;14.50;;;;;;;6.96;71.35;100655.55;134076;1303;22249;-77
2023/05/05 04:07:01;;;;;;;24.60;14.60;;;;;;;6.99;71.40;100653.52;134214;1298;23037;-77
2023/05/05 04:10:02;;;;;;;19.10;12.10;;;;;;;7.05;71.67;100647.89;134210;1298;22381;-77
2023/05/05 04:13:23;;;;;;;21.70;13.30;;;;;;;7.16;71.50;100648.73;134073;1298;23106;-77
2023/05/05 04:16:32;;;;;;;22.40;13.10;;;;;;;7.37;71.53;100652.38;134211;1298;23530;-77
2023/05/05 04:19:42;;;;;;;20.00;12.80;;;;;;;7.64;71.44;100651.27;134076;1301;23079;-77
2023/05/05 04:22:53;;;;;;;;;;;;;;;7.81;71.21;100649.92;134107;1305;22470;-77
2023/05/05 04:26:00;;;;;;;21.30;13.80;;;;;;;7.88;70.96;100653.20;133941;1298;22489;-77
2023/05/05 04:29:02;;;;;;;20.90;12.60;;;;;;;7.94;70.86;100651.25;134090;1305;23300;-77
2023/05/05 04:32:27;;;;;;;20.40;12.60;;;;;;;8.00;70.67;100654.58;133951;1301;22389;-77
2023/05/05 04:36:28;;;;;;;17.10;12.90;;;;;;;8.06;70.57;100651.58;134131;1298;22277;-77
2023/05/05 04:39:29;;;;;;;;;;;;;;;8.16;70.34;100655.25;134117;1301;22502;-76
2023/05/05 04:42:33;;;;;;;21.10;13.40;;;;;;;8.23;70.39;100656.91;134114;1298;22208;-77
2023/05/05 04:45:35;;;;;;;22.60;13.20;;;;;;;8.24;70.32;100660.88;134105;1298;22488;-77
2023/05/05 04:48:38;;;;;;;;;;;;;;;8.24;70.30;100663.70;134096;1298;22473;-77
2023/05/05 04:51:51;;;;;;;23.40;14.00;;;;;;;8.31;70.39;100664.81;134234;1297;23126;-77
2023/05/05 04:55:05;;;;;;;21.50;13.60;;;;;;;8.50;70.29;100670.02;134079;1298;22233;-77
2023/05/05 04:58:27;;;;;;;20.40;12.20;;;;;;;8.89;70.34;100674.88;134144;1298;24727;-77
2023/05/05 05:01:30;;;;;;;17.30;11.80;;;;;;;9.51;69.97;100674.58;134102;1298;23234;-77
2023/05/05 05:04:31;;;;;;;18.50;12.00;;;;;;;10.01;70.02;100674.80;134102;1304;22394;-77
2023/05/05 05:07:34;;;;;;;;;;;;;;;10.61;69.31;100668.56;133967;1298;23221;-77
2023/05/05 05:10:38;;;;;;;18.40;13.00;;;;;;;11.24;68.79;100669.80;134084;1304;22485;-77
2023/05/05 05:13:40;;;;;;;16.10;12.10;;;;;;;11.82;67.84;100673.58;134118;1298;22431;-77
2023/05/05 05:16:50;;;;;;;17.50;12.50;;;;;;;12.38;67.38;100669.59;134245;1301;22344;-77
2023/05/05 05:19:54;;;;;;;16.60;10.90;;;;;;;13.02;66.50;100672.07;134081;1298;22234;-77
2023/05/05 05:23:07;;;;;;;;;;;;;;;;;;;;;
2023/05/05 05:26:10;;;;;;;17.50;11.40;;;;;;;14.30;64.59;100665.44;134215;1298;23156;-77
2023/05/05 05:29:18;;;;;;;17.90;10.30;;;;;;;14.76;61.98;100662.20;134100;1304;22406;-77
2023/05/05 05:32:20;;;;;;;19.40;11.20;;;;;;;14.81;61.49;100666.30;134110;1298;22367;-77
2023/05/05 05:35:42;;;;;;;16.10;10.00;;;;;;;15.11;61.29;100663.48;133965;1297;22189;-77
2023/05/05 05:38:43;;;;;;;12.40;9.50;;;;;;;15.20;59.82;100657.86;134250;1289;22468;-77
2023/05/05 05:41:48;;;;;;;15.30;9.20;;;;;;;15.06;58.78;100663.08;134104;1298;22215;-77
2023/05/05 05:44:49;;;;;;;17.90;10.90;;;;;;;15.00;58.24;100670.63;133965;1299;22405;-77
2023/05/05 05:48:36;;;;;;;15.10;9.90;;;;;;;15.21;58.26;100674.39;134114;1298;22464;-77
2023/05/05 05:52:17;;;;;;;;;;;;;;;;;;;;;
2023/05/05 05:56:00;;;;;;;12.70;9.30;;;;;;;15.52;55.41;100678.05;133994;1303;23173;-77
2023/05/05 06:03:02;;;;;;;17.50;9.10;;;;;;;15.76;55.05;100683.56;134172;1297;22479;-77
2023/05/05 06:10:40;;;;;;;15.00;9.10;;;;;;;16.49;53.68;100688.89;134030;1305;22235;-77
2023/05/05 06:13:55;;;;;;;13.10;8.10;;;;;;;16.54;51.95;100688.08;133945;1298;22384;-77
2023/05/05 06:17:28;;;;;;;11.50;8.20;;;;;;;16.44;50.35;100686.70;134106;1298;22434;-77
2023/05/05 06:20:37;;;;;;;11.60;7.80;;;;;;;16.34;50.91;100687.89;134213;1298;22455;-77
2023/05/05 06:23:42;;;;;;;14.00;8.00;;;;;;;16.59;51.70;100689.94;134212;1298;22422;-77
2023/05/05 06:27:03;;;;;;;10.30;7.10;;;;;;;16.98;50.98;100687.98;134127;1301;25473;-77
2023/05/05 06:31:14;;;;;;;;;;;;;;;;;;;;;
2023/05/05 06:34:43;;;;;;;13.30;7.40;;;;;;;17.63;50.69;100692.80;133927;1305;22371;-77
2023/05/05 06:37:59;;;;;;;9.00;6.60;;;;;;;18.02;50.32;100690.52;134241;1298;22448;-77
2023/05/05 06:41:08;;;;;;;14.10;6.80;;;;;;;18.63;49.99;100686.28;134206;1297;22388;-77
2023/05/05 06:44:28;;;;;;;10.00;6.90;;;;;;;18.97;49.03;100687.61;134261;1297;22416;-77
2023/05/05 06:47:43;;;;;;;10.40;6.90;;;;;;;19.26;48.02;100685.61;134243;1298;22382;-77
2023/05/05 06:51:38;;;;;;;;;;;;;;;;;;;;;
2023/05/05 06:55:42;;;;;;;;;;;;;;;;;;;;;
2023/05/05 06:59:47;;;;;;;10.60;6.80;;;;;;;19.13;45.18;100683.58;133924;1297;22523;-77
2023/05/05 07:04:20;;;;;;;;;;;;;;;;;;;;;
2023/05/05 07:12:39;;;;;;;11.30;6.30;;;;;;;19.48;45.03;100687.94;133600;1304;22456;-77
2023/05/05 07:20:35;;;;;;;10.60;6.50;;;;;;;19.75;43.18;100687.73;133949;1298;22429;-77
2023/05/05 07:23:39;;;;;;;8.20;6.90;;;;;;;19.89;43.20;100689.38;134185;1298;22238;-77
2023/05/05 07:26:47;;;;;;;9.00;6.30;;;;;;;20.07;43.08;100683.61;134236;1298;23138;-77
2023/05/05 07:30:24;;;;;;;8.50;5.70;;;;;;;20.10;42.91;100677.47;134241;1297;23246;-77
2023/05/05 07:33:36;;;;;;;5.90;4.90;;;;;;;20.26;42.47;100677.48;134207;1297;22435;-77
2023/05/05 07:37:27;;;;;;;;;;;;;;;;;;;;;
2023/05/05 07:40:54;;;;;;;7.60;4.50;;;;;;;20.70;41.54;100678.53;134095;1297;22362;-78
2023/05/05 07:44:36;;;;;;;;;;;;;;;;;;;;;
2023/05/05 07:48:14;;;;;;;7.20;5.10;;;;;;;21.07;40.73;100671.57;134188;1298;22915;-77
2023/05/05 07:51:20;;;;;;;6.70;4.40;;;;;;;21.31;40.41;100669.77;131716;1297;3179992;-77
2023/05/05 07:55:11;;;;;;;12.70;5.10;;;;;;;21.53;39.79;100667.58;134114;1299;22519;-77
2023/05/05 07:59:01;;;;;;;7.60;5.00;;;;;;;21.51;39.12;100668.19;134233;1297;22485;-77
2023/05/05 08:03:42;;;;;;;7.80;4.20;;;;;;;21.48;38.76;100670.59;134112;1297;22219;-77
2023/05/05 08:11:50;;;;;;;;;;;;;;;;;;;;;
2023/05/05 08:15:57;;;;;;;5.00;3.30;;;;;;;21.38;35.98;100665.08;133888;1298;22227;-77
2023/05/05 08:19:01;;;;;;;4.00;3.60;;;;;;;21.26;34.86;100660.84;134093;1298;22392;-78
2023/05/05 08:26:52;;;;;;;3.70;3.10;;;;;;;21.22;35.17;100667.29;134218;1298;23062;-77
2023/05/05 08:30:15;;;;;;;5.40;3.30;;;;;;;21.18;33.54;100665.53;134090;1298;22394;-78
2023/05/05 08:33:57;;;;;;;;;;;;;;;;;;;;;
2023/05/05 08:38:21;;;;;;;;;;;;;;;;;;;;;
2023/05/05 08:41:54;;;;;;;5.20;2.80;;;;;;;21.46;33.73;100663.87;133467;1300;22379;-78
2023/05/05 08:45:50;;;;;;;;;;;;;;;;;;;;;
2023/05/05 08:49:53;;;;;;;;;;;;;;;;;;;;;
2023/05/05 08:53:35;;;;;;;4.30;3.00;;;;;;;21.45;31.79;100658.95;133603;1301;22279;-78
2023/05/05 08:57:48;;;;;;;7.50;2.80;;;;;;;21.49;31.96;100655.38;133618;1308;22827;-78
2023/05/05 09:00:45;;;;;;;6.10;2.50;;;;;;;21.50;32.18;100656.91;133683;1301;23126;-78
2023/05/05 09:04:18;;;;;;;;;;;;;;;;;;;;;
2023/05/05 09:07:23;;;;;;;6.20;2.70;;;;;;;21.73;32.13;100655.63;133739;1294;22386;-78
2023/05/05 09:10:30;;;;;;;5.20;3.00;;;;;;;21.83;31.73;100655.74;133743;1300;22279;-77
2023/05/05 09:13:57;;;;;;;;;;;;;;;21.83;30.96;100653.75;133946;1301;22492;-78
2023/05/05 09:17:28;;;;;;;3.80;3.00;;;;;;;21.90;31.56;100646.80;134190;1305;23075;-78
2023/05/05 09:21:57;;;;;;;3.00;2.70;;;;;;;21.96;30.58;100644.27;134162;1291;22269;-78
2023/05/05 09:25:15;;;;;;;4.70;2.90;;;;;;;21.93;30.81;100642.99;133925;1298;22390;-78
2023/05/05 09:29:14;;;;;;;;;;;;;;;;;;;;;
2023/05/05 09:32:35;;;;;;;;;;;;;;;;;;;;;
2023/05/05 09:36:15;;;;;;;;;;;;;;;;;;;;;
2023/05/05 09:39:59;;;;;;;5.10;3.30;;;;;;;22.04;31.30;100644.20;134154;1297;23150;-78
2023/05/05 09:43:13;;;;;;;6.40;3.20;;;;;;;22.41;31.68;100638.41;134227;1297;22357;-78
2023/05/05 09:47:07;;;;;;;;;;;;;;;;;;;;;
2023/05/05 09:50:36;;;;;;;;;;;;;;;;;;;;;
2023/05/05 09:53:53;;;;;;;4.10;2.60;;;;;;;22.60;30.65;100642.25;134142;1298;22372;-78
2023/05/05 09:57:33;;;;;;;;;;;;;;;;;;;;;
2023/05/05 10:01:49;;;;;;;;;;;;;;;;;;;;;
2023/05/05 10:09:41;;;;;;;5.40;3.20;;;;;;;22.46;29.82;100633.91;133647;1298;22425;-79
2023/05/05 10:12:45;;;;;;;3.50;2.70;;;;;;;22.63;30.06;100629.06;134260;1297;22376;-78
2023/05/05 10:16:28;;;;;;;8.60;2.70;;;;;;;22.90;30.68;100638.05;134231;1298;23101;-78
2023/05/05 10:20:14;;;;;;;3.80;2.60;;;;;;;22.98;30.52;100631.46;134229;1297;23121;-78
2023/05/05 10:24:49;;;;;;;4.30;3.30;;;;;;;22.97;29.42;100620.77;134260;1298;22466;-78
2023/05/05 10:28:09;;;;;;;3.30;2.70;;;;;;;22.87;29.78;100615.73;134158;1297;22425;-78
2023/05/05 10:31:22;;;;;;;4.00;3.10;;;;;;;23.09;30.21;100618.89;133977;1300;22366;-78
2023/05/05 10:35:07;;;;;;;;;;;;;;;;;;;;;
2023/05/05 10:43:03;;;;;;;5.60;2.70;;;;;;;22.19;31.62;100624.57;134198;1297;22389;-78
2023/05/05 10:46:48;;;;;;;4.20;2.50;;;;;;;21.96;31.34;100613.56;134150;1297;23461;-78
2023/05/05 10:50:27;;;;;;;7.50;2.80;;;;;;;21.96;32.45;100615.26;134242;1298;23247;-78
2023/05/05 10:53:58;;;;;;;6.40;2.80;;;;;;;22.16;32.11;100613.73;134247;1298;23554;-78
2023/05/05 10:57:08;;;;;;;11.40;3.60;;;;;;;22.23;32.17;100610.90;134140;1298;23349;-78
2023/05/05 11:05:58;;;;;;;7.20;3.40;;;;;;;22.12;31.58;100599.56;134228;1297;22373;-78
2023/05/05 11:09:55;;;;;;;6.70;3.00;;;;;;;21.62;31.56;100598.93;134178;1297;22384;-78
2023/05/05 11:13:35;;;;;;;4.50;3.00;;;;;;;21.47;32.08;100602.45;134054;1297;22483;-78
2023/05/05 11:16:56;;;;;;;;;;;;;;;;;;;;;
2023/05/05 11:21:17;;;;;;;;;;;;;;;;;;;;;
2023/05/05 11:24:41;;;;;;;;;;;;;;;;;;;;;
2023/05/05 11:28:24;;;;;;;8.30;2.90;;;;;;;21.53;32.42;100589.71;134132;1298;22475;-78
2023/05/05 11:32:17;;;;;;;;;;;;;;;;;;;;;
2023/05/05 11:36:16;;;;;;;8.60;2.60;;;;;;;21.47;32.39;100589.44;134036;1298;22467;-78
2023/05/05 11:40:29;;;;;;;;;;;;;;;;;;;;;
2023/05/05 11:48:02;;;;;;;4.80;2.90;;;;;;;21.52;32.98;100581.79;134001;1297;22309;-78
2023/05/05 11:51:32;;;;;;;3.30;2.30;;;;;;;21.50;32.71;100575.12;134176;1298;23069;-79
2023/05/05 11:54:59;;;;;;;;;;;;;;;;;;;;;
2023/05/05 11:58:53;;;;;;;3.30;2.50;;;;;;;21.27;32.93;100568.98;134147;1298;22377;-78
2023/05/05 12:02:10;;;;;;;4.40;2.70;;;;;;;21.13;32.44;100563.46;134141;1297;23128;-78
2023/05/05 12:13:27;;;;;;;5.30;2.50;;;;;;;21.05;33.44;100562.31;134066;1298;22482;-78
2023/05/05 12:16:34;;;;;;;6.70;2.60;;;;;;;21.25;33.18;100561.41;134229;1297;22471;-78
2023/05/05 12:20:00;;;;;;;7.90;2.60;;;;;;;21.31;33.02;100558.80;134144;1297;22566;-78
2023/05/05 12:23:06;;;;;;;5.70;2.70;;;;;;;21.41;32.90;100557.00;134193;1297;22239;-78
2023/05/05 12:26:38;;;;;;;4.70;2.50;;;;;;;21.38;32.93;100554.83;134105;1297;23090;-78
2023/05/05 12:30:12;;;;;;;5.30;2.70;;;;;;;21.23;32.41;100551.92;134189;1297;22183;-78
2023/05/05 12:33:16;;;;;;;3.60;2.20;;;;;;;21.11;32.78;100551.04;134133;1297;22406;-78
2023/05/05 12:36:17;;;;;;;3.80;2.50;;;;;;;21.11;33.53;100551.86;134103;1298;23277;-78
2023/05/05 12:39:24;;;;;;;4.80;2.40;;;;;;;21.06;33.16;100548.52;134239;1297;22359;-78
2023/05/05 12:42:48;;;;;;;4.20;2.90;;;;;;;20.84;33.00;100542.91;134215;1297;23060;-78
2023/05/05 12:46:06;;;;;;;8.80;3.10;;;;;;;20.75;33.40;100550.86;134244;1297;22365;-78
2023/05/05 12:49:10;;;;;;;5.90;2.40;;;;;;;20.71;33.53;100544.59;134092;1298;22628;-78
2023/05/05 12:52:15;;;;;;;4.70;2.40;;;;;;;20.81;34.06;100543.37;134233;1297;23312;-78
2023/05/05 12:55:21;;;;;;;4.60;2.70;;;;;;;20.83;33.08;100537.91;134109;1297;23573;-78
2023/05/05 12:58:32;;;;;;;;;;;;;;;;;;;;;
2023/05/05 13:01:58;;;;;;;7.00;3.10;;;;;;;20.85;33.34;100536.77;134267;1298;23178;-78
2023/05/05 13:05:02;;;;;;;4.10;2.40;;;;;;;20.93;33.57;100538.50;134144;1291;22340;-78
2023/05/05 13:08:42;;;;;;;6.30;3.00;;;;;;;20.89;33.11;100535.15;134218;1297;22386;-78
2023/05/05 13:11:45;;;;;;;;;;;;;;;20.85;33.45;100531.84;134271;1297;23085;-78
2023/05/05 13:14:49;;;;;;;3.70;2.60;;;;;;;20.93;33.55;100532.98;134257;1298;22984;-78
2023/05/05 13:18:07;;;;;;;;;;;;;;;;;;;;;
2023/05/05 13:21:14;;;;;;;;;;;;;;;21.02;33.71;100527.20;134224;1297;22454;-79
2023/05/05 13:24:17;;;;;;;5.80;2.80;;;;;;;21.05;33.63;100527.19;134248;1297;22966;-78
2023/05/05 13:27:19;;;;;;;3.20;2.30;;;;;;;21.02;33.34;100521.71;134236;1305;23218;-78
2023/05/05 13:30:23;;;;;;;5.30;2.90;;;;;;;20.94;33.03;100514.52;134285;1298;22428;-78
2023/05/05 13:33:35;;;;;;;13.10;2.80;;;;;;;20.96;33.37;100509.01;134141;1297;22474;-78
2023/05/05 13:36:39;;;;;;;4.40;2.60;;;;;;;21.06;33.57;100507.69;134118;1301;23272;-78
2023/05/05 13:40:00;;;;;;;4.40;2.60;;;;;;;21.01;32.83;100509.06;134229;1297;22352;-78
2023/05/05 13:43:14;;;;;;;3.50;2.80;;;;;;;20.91;33.25;100509.35;134247;1297;22345;-78
2023/05/05 13:46:17;;;;;;;7.30;2.50;;;;;;;20.91;33.00;100508.28;134175;1298;23237;-78
2023/05/05 13:49:28;;;;;;;3.10;2.40;;;;;;;20.82;32.73;100505.10;134212;1297;22355;-78
2023/05/05 13:52:38;;;;;;;3.40;2.50;;;;;;;20.73;32.66;100500.84;134243;1305;22362;-78
2023/05/05 13:55:42;;;;;;;3.10;2.50;;;;;;;20.58;32.60;100497.31;134237;1297;22173;-78
2023/05/05 13:58:42;;;;;;;6.50;2.70;;;;;;;20.55;32.83;100495.36;134263;1298;22365;-78
2023/05/05 14:01:46;;;;;;;6.70;2.70;;;;;;;20.51;32.55;100493.55;134234;1298;22357;-78
2023/05/05 14:04:55;;;;;;;5.80;2.50;;;;;;;20.51;32.85;100493.94;134213;1297;22399;-78
2023/05/05 14:08:03;;;;;;;4.60;2.30;;;;;;;20.53;32.77;100488.92;134225;1298;23116;-78
2023/05/05 14:15:41;;;;;;;3.60;2.30;;;;;;;20.52;32.87;100480.47;134166;1298;22471;-78
2023/05/05 14:18:51;;;;;;;2.80;2.30;;;;;;;20.38;32.48;100480.89;134228;1297;22349;-78
2023/05/05 14:21:56;;;;;;;3.90;2.40;;;;;;;20.28;32.92;100486.09;134092;1298;22483;-78
2023/05/05 14:25:44;;;;;;;;;;;;;;;;;;;;;
2023/05/05 14:29:31;;;;;;;4.10;2.60;;;;;;;20.17;32.93;100481.64;134104;1297;22858;-78
2023/05/05 14:32:54;;;;;;;;;;;;;;;;;;;;;
2023/05/05 14:36:16;;;;;;;3.50;2.30;;;;;;;20.11;32.94;100478.29;134230;1297;22432;-78
2023/05/05 14:39:23;;;;;;;3.90;2.40;;;;;;;20.11;32.86;100471.86;134215;1298;22368;-78
2023/05/05 14:42:28;;;;;;;6.20;2.10;;;;;;;20.11;32.67;100473.27;134285;1297;22366;-78
2023/05/05 14:45:32;;;;;;;2.90;2.20;;;;;;;20.15;33.06;100475.69;134218;1304;22368;-78
2023/05/05 14:48:42;;;;;;;3.70;2.30;;;;;;;20.17;32.72;100468.05;134209;1294;22230;-78
2023/05/05 14:52:43;;;;;;;4.90;2.50;;;;;;;20.14;32.93;100468.89;134247;1297;23118;-78
2023/05/05 14:55:38;;;;;;;2.90;2.00;;;;;;;20.11;33.33;100470.66;134150;1297;22935;-78
2023/05/05 14:59:19;;;;;;;4.80;2.30;;;;;;;20.11;33.37;100467.84;134244;1297;22428;-77
2023/05/05 15:02:33;;;;;;;4.60;2.20;;;;;;;20.07;32.70;100463.87;134185;1298;23353;-78
2023/05/05 15:05:43;;;;;;;3.50;2.60;;;;;;;19.97;33.04;100460.42;134223;1297;22514;-78
2023/05/05 15:10:00;;;;;;;3.20;2.30;;;;;;;19.91;33.37;100456.12;134259;1297;22381;-78
2023/05/05 15:12:47;;;;;;;3.50;2.50;;;;;;;19.80;33.21;100457.34;133968;1298;22929;-78
2023/05/05 15:15:50;;;;;;;5.10;2.50;;;;;;;19.72;33.62;100458.27;134241;1298;22380;-78
2023/05/05 15:23:38;;;;;;;4.20;2.20;;;;;;;19.73;33.76;100453.33;134218;1297;23259;-78
2023/05/05 15:27:02;;;;;;;3.90;2.70;;;;;;;19.71;33.06;100448.54;134033;1298;22275;-78
2023/05/05 15:30:26;;;;;;;5.60;2.60;;;;;;;19.66;33.04;100449.43;134256;1297;22145;-78
2023/05/05 15:33:29;;;;;;;2.90;2.50;;;;;;;19.68;33.43;100446.18;134207;1298;25213;-78
2023/05/05 15:36:31;;;;;;;3.50;2.20;;;;;;;19.74;33.73;100445.21;134220;1297;22397;-78
2023/05/05 15:40:27;;;;;;;;;;;;;;;;;;;;;
2023/05/05 15:44:00;;;;;;;4.20;2.40;;;;;;;19.68;32.84;100443.37;133432;1301;22346;-78
2023/05/05 15:47:27;;;;;;;6.00;2.30;;;;;;;19.62;32.87;100437.88;133543;1301;22350;-78
2023/05/05 15:50:58;;;;;;;3.50;2.30;;;;;;;19.60;33.23;100443.49;133629;1307;22464;-78
2023/05/05 15:54:29;;;;;;;4.60;2.70;;;;;;;19.50;33.24;100442.86;133536;1304;22415;-78
2023/05/05 15:57:33;;;;;;;5.50;3.00;;;;;;;19.37;33.00;100442.94;133620;1301;22760;-78
2023/05/05 16:00:45;;;;;;;2.70;2.40;;;;;;;19.27;33.21;100444.70;133581;1301;22374;-78
2023/05/05 16:03:49;;;;;;;6.10;2.50;;;;;;;19.18;33.59;100438.95;133632;1302;22390;-78
2023/05/05 16:08:08;;;;;;;6.50;2.20;;;;;;;19.11;33.27;100438.65;133737;1301;22379;-78
2023/05/05 16:11:13;;;;;;;3.60;2.50;;;;;;;19.07;33.88;100433.92;134176;1297;22350;-78
2023/05/05 16:14:49;;;;;;;;;;;;;;;;;;;;;
2023/05/05 16:17:53;;;;;;;3.40;2.30;;;;;;;19.05;33.44;100435.55;134180;1297;22358;-78
2023/05/05 16:21:37;;;;;;;2.30;2.00;;;;;;;19.01;33.59;100434.83;134208;1297;23067;-78
2023/05/05 16:24:41;;;;;;;2.90;2.20;;;;;;;18.94;33.78;100435.58;134118;1298;22231;-78
2023/05/05 16:31:25;;;;;;;5.80;2.20;;;;;;;18.83;34.49;100426.39;134273;1297;22177;-77
2023/05/05 16:34:28;;;;;;;4.30;2.50;;;;;;;18.80;34.57;100423.13;134257;1297;22137;-78
2023/05/05 16:37:29;;;;;;;4.90;2.30;;;;;;;18.77;34.50;100420.65;134254;1298;22446;-78
2023/05/05 16:41:23;;;;;;;4.30;2.30;;;;;;;18.68;34.32;100416.83;134147;1299;22464;-78
2023/05/05 16:44:23;;;;;;;3.80;2.60;;;;;;;18.59;34.50;100411.98;134240;1298;22387;-78
2023/05/05 16:47:27;;;;;;;3.60;2.30;;;;;;;18.52;34.92;100413.11;134253;1298;22164;-78
2023/05/05 16:50:43;;;;;;;5.50;2.70;;;;;;;18.48;35.15;100413.17;134224;1297;22365;-78
2023/05/05 16:54:42;;;;;;;3.50;2.70;;;;;;;18.46;35.34;100414.77;134134;1297;22382;-77
2023/05/05 16:57:43;;;;;;;4.20;2.60;;;;;;;18.45;35.50;100411.86;134119;1297;22559;-77
2023/05/05 17:00:47;;;;;;;4.70;2.40;;;;;;;18.46;35.67;100410.27;134253;1294;22366;-77
2023/05/05 17:03:48;;;;;;;5.00;2.90;;;;;;;18.46;35.55;100413.84;134083;1298;22410;-77
2023/05/05 17:07:11;;;;;;;3.30;2.50;;;;;;;18.43;35.53;100411.95;134103;1298;22558;-76
2023/05/05 17:10:25;;;;;;;;;;;;;;;;;;;;;
2023/05/05 17:13:58;;;;;;;3.40;2.50;;;;;;;18.27;35.89;100407.44;134123;1298;22432;-77
2023/05/05 17:17:08;;;;;;;4.00;2.70;;;;;;;18.16;36.13;100412.02;134183;1298;23253;-76
2023/05/05 17:20:12;;;;;;;4.20;2.60;;;;;;;18.07;36.32;100417.88;134226;1297;23056;-76
2023/05/05 17:23:26;;;;;;;;;;;;;;;;;;;;;
2023/05/05 17:26:31;;;;;;;6.10;2.50;;;;;;;17.81;36.78;100420.65;134196;1298;22358;-77
2023/05/05 17:29:35;;;;;;;4.00;2.80;;;;;;;17.70;37.01;100426.79;134229;1298;22348;-76
2023/05/05 17:32:56;;;;;;;6.00;2.60;;;;;;;17.58;37.26;100432.55;134246;1298;22359;-77
2023/05/05 17:36:08;;;;;;;3.80;2.90;;;;;;;17.44;37.43;100436.38;134220;1294;22456;-76
2023/05/05 17:39:10;;;;;;;6.90;2.80;;;;;;;17.29;37.82;100437.59;134127;1299;22370;-77
2023/05/05 17:42:47;;;;;;;;;;;;;;;;;;;;;